Time;durP1;ratioP1;P1;durP2;ratioP2;P2;SDS_P1;SDS_P2;PMS_P1;PMS_P2;Temp;Humidity;BMP_temperature;BMP_pressure;BME280_temperature;BME280_humidity;BME280_pressure;Samples;Min_cycle;Max_cycle;Signal;HPM_P1;HPM_P2
2023/03/13 00:00:20;;;;;;;46.47;5.90;;;;;;;;;;4972517;28;20349;-84
2023/03/13 00:02:46;;;;;;;36.65;6.65;;;;;;;;;;4986141;28;20034;-84
2023/03/13 00:05:13;;;;;;;33.28;5.90;;;;;;;;;;4990296;28;20030;-77
2023/03/13 00:07:39;;;;;;;38.03;8.25;;;;;;;;;;4987711;28;20041;-86
2023/03/13 00:10:06;;;;;;;33.13;6.45;;;;;;;;;;4990820;28;20077;-87
2023/03/13 00:12:32;;;;;;;37.63;6.43;;;;;;;;;;4988820;28;20026;-87
2023/03/13 00:14:58;;;;;;;39.63;6.05;;;;;;;;;;4989931;28;20070;-87
2023/03/13 00:17:24;;;;;;;44.00;7.60;;;;;;;;;;4986750;28;20030;-77
2023/03/13 00:19:50;;;;;;;40.00;6.47;;;;;;;;;;4972749;28;20038;-85
2023/03/13 00:22:16;;;;;;;45.17;8.23;;;;;;;;;;4985685;28;20026;-85
2023/03/13 00:24:42;;;;;;;35.92;6.40;;;;;;;;;;4973139;28;20034;-81
2023/03/13 00:27:08;;;;;;;54.58;7.22;;;;;;;;;;4984237;28;20058;-85
2023/03/13 00:29:36;;;;;;;42.75;6.75;;;;;;;;;;4988632;28;20049;-84
2023/03/13 00:32:02;;;;;;;34.72;6.18;;;;;;;;;;4985245;28;20027;-80
2023/03/13 00:34:28;;;;;;;36.25;5.45;;;;;;;;;;4983959;28;20516;-85
2023/03/13 00:36:54;;;;;;;38.72;7.35;;;;;;;;;;4986851;28;20034;-86
2023/03/13 00:39:21;;;;;;;36.15;6.00;;;;;;;;;;4986680;28;20076;-80
2023/03/13 00:41:47;;;;;;;45.63;7.78;;;;;;;;;;4989214;28;20074;-86
2023/03/13 00:44:13;;;;;;;35.45;6.47;;;;;;;;;;4978265;28;20038;-88
2023/03/13 00:46:39;;;;;;;40.30;7.22;;;;;;;;;;4971292;28;20034;-86
2023/03/13 00:49:06;;;;;;;38.35;6.78;;;;;;;;;;4983740;28;20033;-85
2023/03/13 00:51:32;;;;;;;40.55;7.72;;;;;;;;;;4988368;28;20041;-86
2023/03/13 00:53:59;;;;;;;36.72;6.85;;;;;;;;;;4988825;28;20026;-80
2023/03/13 00:56:26;;;;;;;38.50;6.10;;;;;;;;;;4986400;28;20036;-85
2023/03/13 00:58:52;;;;;;;55.05;8.88;;;;;;;;;;4955480;28;20034;-84
2023/03/13 01:01:18;;;;;;;42.58;8.48;;;;;;;;;;4983055;28;20027;-87
2023/03/13 01:03:46;;;;;;;41.95;7.90;;;;;;;;;;4987820;28;20054;-84
2023/03/13 01:06:13;;;;;;;34.80;6.45;;;;;;;;;;4988785;28;20051;-89
2023/03/13 01:08:40;;;;;;;32.30;6.38;;;;;;;;;;4991672;28;20120;-87
2023/03/13 01:11:07;;;;;;;32.70;6.18;;;;;;;;;;4969252;28;20038;-86
2023/03/13 01:13:33;;;;;;;34.65;6.38;;;;;;;;;;4986469;28;20026;-81
2023/03/13 01:16:20;;;;;;;38.97;7.88;;;;;;;;;;4984714;28;20097;-85
2023/03/13 01:18:47;;;;;;;37.22;6.70;;;;;;;;;;4986845;28;20041;-84
2023/03/13 01:21:14;;;;;;;42.38;6.53;;;;;;;;;;4988216;28;20061;-84
2023/03/13 01:23:40;;;;;;;37.17;6.68;;;;;;;;;;4987659;28;20029;-84
2023/03/13 01:26:07;;;;;;;43.00;7.82;;;;;;;;;;4984839;28;20077;-85
2023/03/13 01:28:33;;;;;;;46.88;6.70;;;;;;;;;;4985483;28;20396;-78
2023/03/13 01:30:59;;;;;;;40.17;7.28;;;;;;;;;;4983742;28;20031;-84
2023/03/13 01:33:25;;;;;;;46.80;7.97;;;;;;;;;;4968679;28;20113;-83
2023/03/13 01:35:52;;;;;;;36.08;6.10;;;;;;;;;;4982187;28;20066;-82
2023/03/13 01:38:18;;;;;;;39.67;7.82;;;;;;;;;;4967092;28;20030;-82
2023/03/13 01:40:45;;;;;;;42.60;7.53;;;;;;;;;;4988303;28;20034;-81
2023/03/13 01:43:22;;;;;;;32.72;7.53;;;;;;;;;;4995099;28;20037;-79
2023/03/13 01:45:53;;;;;;;33.30;6.55;;;;;;;;;;4991006;28;20541;-85
2023/03/13 01:48:25;;;;;;;37.65;6.80;;;;;;;;;;4993342;28;20374;-81
2023/03/13 01:50:53;;;;;;;34.85;6.72;;;;;;;;;;4986406;28;20038;-83
2023/03/13 01:53:19;;;;;;;43.00;6.43;;;;;;;;;;4976683;28;20109;-81
2023/03/13 01:55:46;;;;;;;39.40;6.35;;;;;;;;;;4983277;28;20042;-83
2023/03/13 01:58:12;;;;;;;39.95;5.88;;;;;;;;;;4968607;28;20348;-84
2023/03/13 02:00:41;;;;;;;47.65;8.95;;;;;;;;;;4981842;28;20047;-81
2023/03/13 02:03:11;;;;;;;41.03;8.70;;;;;;;;;;4987623;28;20053;-81
2023/03/13 02:05:37;;;;;;;29.23;5.80;;;;;;;;;;4986082;28;20474;-84
2023/03/13 02:08:08;;;;;;;27.83;5.80;;;;;;;;;;4985723;28;20038;-84
2023/03/13 02:10:37;;;;;;;29.98;5.30;;;;;;;;;;4985197;28;20085;-85
2023/03/13 02:13:03;;;;;;;37.17;6.22;;;;;;;;;;4966511;28;20383;-83
2023/03/13 02:15:30;;;;;;;30.33;6.18;;;;;;;;;;4984928;28;20128;-83
2023/03/13 02:17:56;;;;;;;25.08;6.15;;;;;;;;;;4987097;28;20045;-82
2023/03/13 02:20:22;;;;;;;22.83;5.75;;;;;;;;;;4969111;28;20043;-76
2023/03/13 02:23:00;;;;;;;29.23;6.10;;;;;;;;;;4981536;28;20030;-80
2023/03/13 02:25:49;;;;;;;22.38;5.63;;;;;;;;;;4984918;28;22144;-76
2023/03/13 02:28:24;;;;;;;23.67;4.82;;;;;;;;;;4986890;28;21116;-81
2023/03/13 02:30:51;;;;;;;33.35;6.78;;;;;;;;;;4980369;28;20570;-80
2023/03/13 02:33:18;;;;;;;19.92;5.32;;;;;;;;;;4984900;28;20078;-79
2023/03/13 02:35:45;;;;;;;26.10;6.20;;;;;;;;;;4985803;28;20065;-80
2023/03/13 02:38:13;;;;;;;22.35;5.05;;;;;;;;;;4983783;28;20042;-80
2023/03/13 02:40:41;;;;;;;20.60;5.30;;;;;;;;;;4980413;28;20018;-81
2023/03/13 02:43:10;;;;;;;22.05;5.32;;;;;;;;;;4983044;28;20954;-77
2023/03/13 02:45:36;;;;;;;14.55;4.30;;;;;;;;;;4983781;28;20113;-81
2023/03/13 02:48:02;;;;;;;15.10;5.03;;;;;;;;;;4985661;28;20392;-80
2023/03/13 02:50:29;;;;;;;10.77;4.47;;;;;;;;;;4983173;28;20026;-81
2023/03/13 02:52:58;;;;;;;18.77;5.65;;;;;;;;;;4984062;28;20022;-81
2023/03/13 02:55:26;;;;;;;20.70;5.18;;;;;;;;;;4987157;28;20038;-81
2023/03/13 02:57:52;;;;;;;17.80;4.75;;;;;;;;;;4984509;28;20085;-76
2023/03/13 03:00:18;;;;;;;12.35;4.30;;;;;;;;;;4987702;28;20038;-81
2023/03/13 03:02:44;;;;;;;15.40;5.05;;;;;;;;;;4988001;28;20109;-81
2023/03/13 03:05:11;;;;;;;11.38;4.78;;;;;;;;;;4987182;28;20503;-81
2023/03/13 03:07:37;;;;;;;15.00;4.78;;;;;;;;;;4989979;28;20485;-81
2023/03/13 03:10:04;;;;;;;7.55;4.10;;;;;;;;;;4984887;28;20030;-83
2023/03/13 03:12:30;;;;;;;13.88;4.72;;;;;;;;;;4988911;28;20018;-75
2023/03/13 03:14:56;;;;;;;13.13;4.85;;;;;;;;;;4987357;28;20042;-80
2023/03/13 03:17:22;;;;;;;9.73;5.15;;;;;;;;;;4988054;28;20026;-77
2023/03/13 03:19:48;;;;;;;9.15;4.72;;;;;;;;;;4989558;28;20027;-78
2023/03/13 03:22:14;;;;;;;10.98;4.93;;;;;;;;;;4985121;28;20058;-75
2023/03/13 03:24:41;;;;;;;14.57;5.32;;;;;;;;;;4989571;28;20044;-80
2023/03/13 03:27:07;;;;;;;9.73;5.03;;;;;;;;;;4972781;28;20097;-79
2023/03/13 03:29:33;;;;;;;11.65;4.82;;;;;;;;;;4985348;28;20033;-78
2023/03/13 03:31:59;;;;;;;11.82;4.97;;;;;;;;;;4984982;28;20029;-79
2023/03/13 03:34:25;;;;;;;12.45;5.28;;;;;;;;;;4971758;28;20089;-78
2023/03/13 03:36:51;;;;;;;9.95;4.63;;;;;;;;;;4973364;28;20039;-75
2023/03/13 03:39:17;;;;;;;11.70;4.95;;;;;;;;;;4983724;28;20034;-78
2023/03/13 03:41:43;;;;;;;11.23;5.45;;;;;;;;;;4985540;28;20030;-78
2023/03/13 03:44:09;;;;;;;8.43;5.57;;;;;;;;;;4989749;28;20038;-78
2023/03/13 03:46:35;;;;;;;10.02;5.35;;;;;;;;;;4971426;28;20030;-78
2023/03/13 03:49:01;;;;;;;10.05;5.97;;;;;;;;;;4985369;28;20081;-79
2023/03/13 03:51:27;;;;;;;9.02;6.00;;;;;;;;;;4971945;28;20030;-79
2023/03/13 03:53:53;;;;;;;10.07;6.10;;;;;;;;;;4986565;28;20047;-78
2023/03/13 03:56:19;;;;;;;9.85;6.32;;;;;;;;;;4982783;28;20042;-79
2023/03/13 03:58:45;;;;;;;11.40;6.35;;;;;;;;;;4987972;28;20027;-79
2023/03/13 04:01:12;;;;;;;10.70;6.32;;;;;;;;;;4984986;28;20037;-79
2023/03/13 04:03:40;;;;;;;10.38;7.05;;;;;;;;;;4985640;28;20719;-79
2023/03/13 04:06:08;;;;;;;12.27;7.70;;;;;;;;;;4988297;28;20383;-78
2023/03/13 04:08:35;;;;;;;11.60;7.95;;;;;;;;;;4987283;28;20041;-80
2023/03/13 04:11:01;;;;;;;15.68;8.93;;;;;;;;;;4981951;28;20038;-80
2023/03/13 04:13:27;;;;;;;23.48;10.85;;;;;;;;;;4985458;28;20027;-81
2023/03/13 04:15:53;;;;;;;16.17;11.38;;;;;;;;;;4985863;28;20166;-79
2023/03/13 04:18:19;;;;;;;17.10;11.55;;;;;;;;;;4986784;28;20039;-77
2023/03/13 04:20:45;;;;;;;22.48;13.13;;;;;;;;;;4986228;28;20387;-79
2023/03/13 04:23:12;;;;;;;24.80;13.40;;;;;;;;;;4986994;28;20034;-79
2023/03/13 04:25:38;;;;;;;24.38;12.63;;;;;;;;;;4987146;28;20035;-76
2023/03/13 04:28:04;;;;;;;25.58;13.70;;;;;;;;;;4988052;28;20038;-80
2023/03/13 04:30:30;;;;;;;21.00;12.27;;;;;;;;;;4985070;28;20416;-77
2023/03/13 04:32:56;;;;;;;27.67;12.65;;;;;;;;;;4987122;28;20039;-76
2023/03/13 04:35:22;;;;;;;25.15;13.35;;;;;;;;;;4987756;28;20081;-77
2023/03/13 04:37:48;;;;;;;21.20;12.02;;;;;;;;;;4985480;28;20026;-78
2023/03/13 04:40:14;;;;;;;21.65;12.05;;;;;;;;;;4971179;28;20038;-78
2023/03/13 04:42:41;;;;;;;21.15;11.38;;;;;;;;;;4983799;28;20033;-76
2023/03/13 04:45:09;;;;;;;23.13;12.45;;;;;;;;;;4970649;28;20056;-79
2023/03/13 04:47:35;;;;;;;24.23;10.60;;;;;;;;;;4967955;28;20080;-79
2023/03/13 04:50:01;;;;;;;16.83;9.68;;;;;;;;;;4970417;28;20033;-81
2023/03/13 04:52:27;;;;;;;21.50;9.73;;;;;;;;;;4983568;28;20041;-79
2023/03/13 04:54:53;;;;;;;24.55;9.40;;;;;;;;;;4985524;28;20042;-79
2023/03/13 04:57:19;;;;;;;20.42;9.18;;;;;;;;;;4965250;28;20037;-79
2023/03/13 04:59:45;;;;;;;20.67;9.30;;;;;;;;;;4987858;28;20069;-79
2023/03/13 05:02:12;;;;;;;19.73;9.32;;;;;;;;;;4985495;28;20100;-78
2023/03/13 05:04:38;;;;;;;21.98;9.35;;;;;;;;;;4986878;28;20439;-79
2023/03/13 05:07:04;;;;;;;30.13;7.95;;;;;;;;;;4983890;28;20084;-79
2023/03/13 05:09:30;;;;;;;20.73;7.63;;;;;;;;;;4982034;28;20049;-85
2023/03/13 05:11:56;;;;;;;16.33;6.70;;;;;;;;;;4967686;28;20557;-82
2023/03/13 05:14:22;;;;;;;18.40;5.68;;;;;;;;;;4976611;28;20038;-78
2023/03/13 05:16:48;;;;;;;18.00;5.28;;;;;;;;;;4975434;28;20137;-76
2023/03/13 05:19:14;;;;;;;21.63;6.30;;;;;;;;;;4979032;28;20045;-83
2023/03/13 05:21:40;;;;;;;14.32;5.30;;;;;;;;;;4985563;28;20034;-81
2023/03/13 05:24:07;;;;;;;16.92;6.38;;;;;;;;;;4981878;28;20041;-79
2023/03/13 05:26:33;;;;;;;16.05;4.95;;;;;;;;;;4982605;28;20122;-82
2023/03/13 05:28:59;;;;;;;17.02;4.55;;;;;;;;;;4981384;28;20030;-80
2023/03/13 05:31:25;;;;;;;13.65;4.47;;;;;;;;;;4978265;28;21925;-76
2023/03/13 05:33:51;;;;;;;19.92;5.70;;;;;;;;;;4985312;28;20058;-81
2023/03/13 05:36:17;;;;;;;13.80;4.55;;;;;;;;;;4985835;28;20058;-81
2023/03/13 05:38:43;;;;;;;18.70;4.68;;;;;;;;;;4984726;28;20030;-87
2023/03/13 05:41:09;;;;;;;16.00;4.35;;;;;;;;;;4985453;28;20487;-87
2023/03/13 05:43:36;;;;;;;17.45;4.38;;;;;;;;;;4991914;28;20598;-78
2023/03/13 05:46:02;;;;;;;14.98;4.82;;;;;;;;;;4990598;28;20022;-80
2023/03/13 05:48:28;;;;;;;15.40;4.95;;;;;;;;;;4990755;28;20030;-79
2023/03/13 05:50:54;;;;;;;19.15;4.80;;;;;;;;;;4980932;28;20030;-81
2023/03/13 05:53:21;;;;;;;21.60;6.40;;;;;;;;;;4974828;28;20030;-81
2023/03/13 05:55:47;;;;;;;25.70;5.40;;;;;;;;;;4985904;28;20043;-80
2023/03/13 05:58:13;;;;;;;24.52;6.90;;;;;;;;;;4985303;28;20031;-76
2023/03/13 06:00:39;;;;;;;26.10;7.05;;;;;;;;;;4982804;28;20038;-77
2023/03/13 06:03:05;;;;;;;25.60;6.95;;;;;;;;;;4984918;28;20066;-79
2023/03/13 06:05:31;;;;;;;14.27;4.38;;;;;;;;;;4984891;28;20038;-80
2023/03/13 06:07:57;;;;;;;17.40;4.32;;;;;;;;;;4977287;28;20085;-79
2023/03/13 06:10:23;;;;;;;24.05;4.35;;;;;;;;;;4964923;28;20039;-78
2023/03/13 06:12:53;;;;;;;16.23;4.80;;;;;;;;;;4980510;28;20030;-74
2023/03/13 06:15:19;;;;;;;17.13;4.40;;;;;;;;;;4980736;28;20104;-76
2023/03/13 06:17:45;;;;;;;12.98;3.88;;;;;;;;;;4982150;28;20031;-75
2023/03/13 06:20:12;;;;;;;15.20;4.13;;;;;;;;;;4969235;28;20042;-76
2023/03/13 06:22:38;;;;;;;13.73;4.63;;;;;;;;;;4984333;28;20045;-76
2023/03/13 06:25:05;;;;;;;14.13;3.88;;;;;;;;;;4966322;28;20081;-78
2023/03/13 06:27:31;;;;;;;14.65;3.70;;;;;;;;;;4966995;28;20058;-75
2023/03/13 06:29:57;;;;;;;14.23;3.90;;;;;;;;;;4979809;28;20069;-74
2023/03/13 06:32:23;;;;;;;18.67;4.45;;;;;;;;;;4984180;28;20042;-74
2023/03/13 06:34:49;;;;;;;18.42;4.45;;;;;;;;;;4981201;28;20485;-75
2023/03/13 06:37:15;;;;;;;14.65;4.00;;;;;;;;;;4988046;28;20030;-81
2023/03/13 06:39:41;;;;;;;24.02;5.50;;;;;;;;;;4966293;28;20031;-77
2023/03/13 06:42:08;;;;;;;11.50;4.30;;;;;;;;;;4988115;28;20030;-79
2023/03/13 06:44:34;;;;;;;18.77;3.97;;;;;;;;;;4971275;28;20542;-76
2023/03/13 06:47:00;;;;;;;22.10;4.68;;;;;;;;;;4972397;28;20491;-79
2023/03/13 06:49:26;;;;;;;18.50;4.80;;;;;;;;;;4989932;28;20507;-78
2023/03/13 06:51:52;;;;;;;22.15;4.38;;;;;;;;;;4985872;28;20549;-79
2023/03/13 06:54:18;;;;;;;17.25;4.65;;;;;;;;;;4988388;28;20089;-78
2023/03/13 06:56:44;;;;;;;18.50;4.47;;;;;;;;;;4990402;28;20145;-79
2023/03/13 06:59:10;;;;;;;15.05;4.28;;;;;;;;;;4982822;28;20035;-80
2023/03/13 07:01:36;;;;;;;14.35;4.45;;;;;;;;;;4983982;28;20132;-79
2023/03/13 07:04:02;;;;;;;20.73;5.43;;;;;;;;;;4984806;28;20049;-80
2023/03/13 07:06:28;;;;;;;16.77;3.58;;;;;;;;;;4986366;28;20027;-81
2023/03/13 07:08:54;;;;;;;20.25;5.50;;;;;;;;;;4971828;28;20498;-81
2023/03/13 07:11:20;;;;;;;19.08;4.13;;;;;;;;;;4972905;28;20034;-81
2023/03/13 07:13:46;;;;;;;18.75;4.10;;;;;;;;;;4986840;28;20042;-80
2023/03/13 07:16:13;;;;;;;22.90;3.90;;;;;;;;;;4973036;28;20038;-79
2023/03/13 07:18:46;;;;;;;15.25;4.18;;;;;;;;;;4988374;28;20102;-79
2023/03/13 07:21:12;;;;;;;13.77;4.15;;;;;;;;;;4989248;28;20064;-78
2023/03/13 07:23:39;;;;;;;19.13;5.25;;;;;;;;;;4988712;28;20491;-79
2023/03/13 07:26:06;;;;;;;14.13;3.83;;;;;;;;;;4986392;28;20038;-79
2023/03/13 07:28:33;;;;;;;12.00;3.67;;;;;;;;;;4989889;28;20037;-78
2023/03/13 07:31:06;;;;;;;9.38;3.28;;;;;;;;;;4985519;28;20038;-77
2023/03/13 07:33:33;;;;;;;18.25;3.53;;;;;;;;;;4987449;28;20019;-78
2023/03/13 07:35:59;;;;;;;13.93;3.85;;;;;;;;;;4985323;28;20034;-76
2023/03/13 07:38:25;;;;;;;14.77;3.70;;;;;;;;;;4970918;28;20022;-78
2023/03/13 07:40:52;;;;;;;15.43;3.20;;;;;;;;;;4986814;28;20034;-79
2023/03/13 07:43:19;;;;;;;13.18;2.90;;;;;;;;;;4988696;28;20023;-78
2023/03/13 07:45:52;;;;;;;16.42;4.05;;;;;;;;;;4987878;28;20505;-80
2023/03/13 07:48:19;;;;;;;15.65;3.22;;;;;;;;;;4988064;28;20884;-78
2023/03/13 07:50:45;;;;;;;10.95;4.22;;;;;;;;;;4980399;28;20035;-77
2023/03/13 07:53:11;;;;;;;13.88;3.13;;;;;;;;;;4971146;28;20035;-78
2023/03/13 07:55:37;;;;;;;18.10;3.85;;;;;;;;;;4988411;28;20042;-78
2023/03/13 07:58:03;;;;;;;10.93;3.55;;;;;;;;;;4985847;28;20051;-78
2023/03/13 08:00:29;;;;;;;14.32;3.13;;;;;;;;;;4982413;28;20035;-75
2023/03/13 08:02:55;;;;;;;9.73;3.05;;;;;;;;;;4981261;28;20038;-80
2023/03/13 08:05:21;;;;;;;8.52;3.05;;;;;;;;;;4975254;28;20097;-75
2023/03/13 08:07:47;;;;;;;17.15;2.97;;;;;;;;;;4961141;28;20054;-78
2023/03/13 08:10:13;;;;;;;11.35;2.50;;;;;;;;;;4982097;28;20039;-80
2023/03/13 08:12:40;;;;;;;13.45;2.55;;;;;;;;;;4981867;28;20038;-78
2023/03/13 08:15:06;;;;;;;12.85;2.97;;;;;;;;;;4964414;28;20038;-85
2023/03/13 08:17:32;;;;;;;14.93;2.78;;;;;;;;;;4981523;28;20031;-79
2023/03/13 08:19:58;;;;;;;7.50;2.70;;;;;;;;;;4985237;28;20105;-81
2023/03/13 08:22:24;;;;;;;10.60;2.58;;;;;;;;;;4987111;28;20026;-76
2023/03/13 08:24:50;;;;;;;9.82;2.83;;;;;;;;;;4985327;28;20037;-76
2023/03/13 08:27:16;;;;;;;18.38;3.78;;;;;;;;;;4981273;28;20071;-82
2023/03/13 08:29:42;;;;;;;8.60;2.50;;;;;;;;;;4983361;28;20247;-76
2023/03/13 08:32:08;;;;;;;6.38;1.95;;;;;;;;;;4981838;28;20038;-84
2023/03/13 08:34:35;;;;;;;13.30;2.90;;;;;;;;;;4982306;28;20043;-78
2023/03/13 08:37:04;;;;;;;10.35;3.35;;;;;;;;;;4974783;28;20117;-77
2023/03/13 08:39:30;;;;;;;7.55;3.45;;;;;;;;;;4985831;28;20030;-75
2023/03/13 08:41:56;;;;;;;8.57;3.08;;;;;;;;;;4982114;28;20037;-79
2023/03/13 08:44:22;;;;;;;8.98;2.65;;;;;;;;;;4978013;28;20053;-78
2023/03/13 08:46:48;;;;;;;9.45;2.25;;;;;;;;;;4986694;28;20034;-83
2023/03/13 08:49:16;;;;;;;9.48;2.75;;;;;;;;;;4993433;28;20022;-81
2023/03/13 08:51:42;;;;;;;9.10;2.10;;;;;;;;;;4991676;28;20040;-83
2023/03/13 08:54:08;;;;;;;8.80;2.97;;;;;;;;;;4970317;28;20045;-80
2023/03/13 08:56:34;;;;;;;7.85;1.92;;;;;;;;;;4978169;28;20408;-75
2023/03/13 08:59:02;;;;;;;9.27;2.30;;;;;;;;;;4990682;28;20049;-76
2023/03/13 09:01:29;;;;;;;13.07;2.70;;;;;;;;;;4984405;28;20357;-76
2023/03/13 09:03:56;;;;;;;10.25;2.10;;;;;;;;;;4985373;28;20050;-76
2023/03/13 09:06:22;;;;;;;8.07;2.88;;;;;;;;;;4974227;28;20062;-77
2023/03/13 09:08:48;;;;;;;14.35;3.25;;;;;;;;;;4985598;28;20030;-77
2023/03/13 09:11:16;;;;;;;11.18;3.50;;;;;;;;;;4974455;28;20065;-75
2023/03/13 09:13:43;;;;;;;14.32;2.78;;;;;;;;;;4969983;28;20042;-78
2023/03/13 09:16:11;;;;;;;13.90;2.60;;;;;;;;;;4982984;28;20038;-78
2023/03/13 09:18:37;;;;;;;17.80;2.78;;;;;;;;;;4985371;28;20511;-76
2023/03/13 09:21:05;;;;;;;15.80;2.85;;;;;;;;;;4969721;28;20092;-85
2023/03/13 09:23:31;;;;;;;16.20;4.00;;;;;;;;;;4988390;28;20620;-80
2023/03/13 09:25:57;;;;;;;13.95;3.35;;;;;;;;;;4974047;28;20038;-80
2023/03/13 09:28:24;;;;;;;16.88;3.17;;;;;;;;;;4984735;28;20042;-78
2023/03/13 09:30:51;;;;;;;14.10;3.20;;;;;;;;;;4956442;28;20054;-81
2023/03/13 09:33:17;;;;;;;13.35;2.83;;;;;;;;;;4983621;28;20042;-81
2023/03/13 09:35:49;;;;;;;22.63;3.83;;;;;;;;;;4988553;28;20046;-77
2023/03/13 09:38:15;;;;;;;14.27;2.60;;;;;;;;;;4981335;28;20444;-83
2023/03/13 09:40:43;;;;;;;18.70;3.63;;;;;;;;;;4991977;28;20090;-85
2023/03/13 09:43:28;;;;;;;16.90;2.58;;;;;;;;;;4993019;28;20036;-84
2023/03/13 09:45:56;;;;;;;12.90;2.40;;;;;;;;;;4986386;28;20034;-77
2023/03/13 09:48:40;;;;;;;16.75;3.72;;;;;;;;;;4980867;28;20018;-79
2023/03/13 09:51:41;;;;;;;13.45;3.15;;;;;;;;;;4984904;28;20030;-81
2023/03/13 09:54:28;;;;;;;13.13;2.72;;;;;;;;;;4942749;28;20487;-77
2023/03/13 09:56:56;;;;;;;17.80;3.05;;;;;;;;;;4986739;28;20479;-78
2023/03/13 09:59:32;;;;;;;19.88;3.78;;;;;;;;;;4982147;28;20030;-74
2023/03/13 10:02:00;;;;;;;22.42;4.10;;;;;;;;;;4974058;28;20026;-81
2023/03/13 10:04:29;;;;;;;19.23;4.63;;;;;;;;;;4977415;28;20147;-79
2023/03/13 10:06:55;;;;;;;14.07;4.25;;;;;;;;;;4978390;28;20030;-81
2023/03/13 10:09:26;;;;;;;19.02;3.60;;;;;;;;;;4971064;28;20039;-81
2023/03/13 10:11:59;;;;;;;19.52;3.47;;;;;;;;;;4973116;28;20039;-81
2023/03/13 10:14:51;;;;;;;18.08;4.22;;;;;;;;;;4978945;28;20035;-89
2023/03/13 10:17:17;;;;;;;14.35;3.63;;;;;;;;;;4977703;28;20125;-83
2023/03/13 10:19:46;;;;;;;14.15;3.35;;;;;;;;;;4976069;28;20550;-87
2023/03/13 10:22:18;;;;;;;18.92;3.78;;;;;;;;;;4977645;28;20518;-87
2023/03/13 10:25:10;;;;;;;17.45;4.25;;;;;;;;;;4980308;28;20039;-85
2023/03/13 10:27:43;;;;;;;16.30;4.20;;;;;;;;;;4949025;28;20047;-87
2023/03/13 10:30:19;;;;;;;19.55;3.80;;;;;;;;;;4978842;28;20137;-83
2023/03/13 10:32:45;;;;;;;18.55;4.57;;;;;;;;;;4978714;28;20103;-89
2023/03/13 10:35:19;;;;;;;19.80;5.00;;;;;;;;;;4981057;28;20027;-87
2023/03/13 10:37:45;;;;;;;15.82;3.42;;;;;;;;;;4977802;28;20027;-85
2023/03/13 10:40:23;;;;;;;21.85;4.47;;;;;;;;;;4976425;28;20041;-89
2023/03/13 10:42:51;;;;;;;23.92;4.32;;;;;;;;;;4975548;28;20030;-89
2023/03/13 10:45:18;;;;;;;18.88;4.30;;;;;;;;;;4965661;28;20383;-81
2023/03/13 10:47:44;;;;;;;18.20;3.97;;;;;;;;;;4977593;28;20079;-83
2023/03/13 10:50:21;;;;;;;20.63;3.45;;;;;;;;;;4974815;28;20081;-87
2023/03/13 10:52:48;;;;;;;16.52;4.38;;;;;;;;;;4972522;28;20034;-87
2023/03/13 10:55:18;;;;;;;19.08;3.83;;;;;;;;;;4981329;28;20102;-88
2023/03/13 10:58:11;;;;;;;16.90;2.85;;;;;;;;;;4966891;28;20485;-87
2023/03/13 11:00:38;;;;;;;15.30;3.58;;;;;;;;;;4968239;28;20043;-85
2023/03/13 11:03:06;;;;;;;13.60;3.13;;;;;;;;;;4974020;28;20030;-85
2023/03/13 11:05:36;;;;;;;14.57;3.50;;;;;;;;;;4977487;28;20069;-85
2023/03/13 11:08:12;;;;;;;14.27;3.60;;;;;;;;;;4999257;28;20034;-88
2023/03/13 11:10:50;;;;;;;13.55;2.85;;;;;;;;;;4999482;28;20022;-89
2023/03/13 11:13:26;;;;;;;14.13;3.47;;;;;;;;;;4981522;28;20652;-87
2023/03/13 11:15:56;;;;;;;13.05;3.13;;;;;;;;;;4997705;28;20034;-86
2023/03/13 11:18:26;;;;;;;14.10;2.97;;;;;;;;;;4996252;28;20077;-86
2023/03/13 11:20:53;;;;;;;15.18;3.97;;;;;;;;;;4994857;28;20484;-85
2023/03/13 11:23:22;;;;;;;17.60;3.40;;;;;;;;;;4993335;28;20437;-88
2023/03/13 11:26:01;;;;;;;14.23;3.90;;;;;;;;;;4994497;28;20035;-87
2023/03/13 11:28:39;;;;;;;15.63;3.47;;;;;;;;;;4980550;28;20038;-80
2023/03/13 11:31:18;;;;;;;13.85;5.28;;;;;;;;;;4984072;28;20096;-91
2023/03/13 11:34:03;;;;;;;17.45;5.60;;;;;;;;;;4992772;28;20423;-80
2023/03/13 11:36:32;;;;;;;11.40;3.20;;;;;;;;;;4987791;28;20070;-86
2023/03/13 11:39:17;;;;;;;15.65;3.90;;;;;;;;;;4977163;28;20559;-79
2023/03/13 11:41:52;;;;;;;13.75;2.90;;;;;;;;;;4981510;28;20085;-80
2023/03/13 11:44:18;;;;;;;18.02;3.10;;;;;;;;;;4984962;28;20038;-80
2023/03/13 11:46:47;;;;;;;14.15;3.22;;;;;;;;;;4984463;28;20088;-80
2023/03/13 11:49:32;;;;;;;15.82;3.05;;;;;;;;;;4982566;28;20472;-80
2023/03/13 11:52:17;;;;;;;16.83;3.05;;;;;;;;;;4966134;28;20088;-81
2023/03/13 11:54:43;;;;;;;17.85;3.60;;;;;;;;;;4989191;28;20045;-80
2023/03/13 11:57:13;;;;;;;16.35;3.53;;;;;;;;;;4984621;28;20030;-86
2023/03/13 11:59:45;;;;;;;14.82;3.00;;;;;;;;;;4982288;28;20046;-81
2023/03/13 12:02:22;;;;;;;21.58;3.75;;;;;;;;;;4985680;28;20026;-81
2023/03/13 12:04:55;;;;;;;14.50;3.30;;;;;;;;;;4984576;28;20487;-84
2023/03/13 12:07:32;;;;;;;21.67;4.30;;;;;;;;;;4987417;28;20486;-83
2023/03/13 12:10:02;;;;;;;17.50;4.18;;;;;;;;;;4986480;28;20104;-86
2023/03/13 12:12:28;;;;;;;20.48;4.38;;;;;;;;;;4994524;28;20494;-80
2023/03/13 12:15:07;;;;;;;25.40;4.78;;;;;;;;;;4996954;28;20050;-83
2023/03/13 12:17:36;;;;;;;26.38;4.35;;;;;;;;;;4990836;28;20061;-86
2023/03/13 12:20:14;;;;;;;24.95;3.90;;;;;;;;;;4992547;28;20030;-88
2023/03/13 12:22:50;;;;;;;19.70;4.43;;;;;;;;;;4985926;28;20105;-83
2023/03/13 12:25:22;;;;;;;18.05;5.00;;;;;;;;;;4983483;28;20121;-83
2023/03/13 12:28:00;;;;;;;17.65;4.03;;;;;;;;;;4986754;28;20023;-81
2023/03/13 12:30:30;;;;;;;22.85;3.95;;;;;;;;;;4982095;28;20383;-79
2023/03/13 12:33:13;;;;;;;20.27;4.38;;;;;;;;;;4979788;28;20034;-79
2023/03/13 12:35:41;;;;;;;20.95;4.22;;;;;;;;;;4983444;28;20042;-83
2023/03/13 12:38:25;;;;;;;27.40;5.28;;;;;;;;;;4992108;28;20066;-85
2023/03/13 12:41:10;;;;;;;23.45;4.97;;;;;;;;;;4991172;28;20026;-82
2023/03/13 12:43:39;;;;;;;24.38;4.47;;;;;;;;;;4993918;28;20816;-84
2023/03/13 12:46:23;;;;;;;21.33;4.32;;;;;;;;;;4989455;28;20026;-83
2023/03/13 12:48:55;;;;;;;22.85;4.25;;;;;;;;;;4992924;28;20487;-81
2023/03/13 12:51:27;;;;;;;28.88;4.70;;;;;;;;;;4991877;28;20479;-82
2023/03/13 12:54:12;;;;;;;32.70;5.93;;;;;;;;;;4999876;28;20041;-83
2023/03/13 12:56:44;;;;;;;29.45;5.53;;;;;;;;;;4988380;28;20045;-84
2023/03/13 12:59:19;;;;;;;22.70;4.90;;;;;;;;;;4988738;28;20022;-85
2023/03/13 13:01:47;;;;;;;20.70;5.20;;;;;;;;;;4976070;28;20153;-85
2023/03/13 13:04:26;;;;;;;23.42;4.43;;;;;;;;;;4993444;28;20431;-87
2023/03/13 13:06:59;;;;;;;22.48;4.55;;;;;;;;;;4992892;28;20033;-87
2023/03/13 13:09:27;;;;;;;19.58;5.00;;;;;;;;;;4990623;28;20024;-83
2023/03/13 13:11:54;;;;;;;21.92;4.78;;;;;;;;;;4993364;28;20030;-83
2023/03/13 13:14:20;;;;;;;32.38;5.32;;;;;;;;;;4992017;28;20395;-83
2023/03/13 13:16:50;;;;;;;28.23;5.00;;;;;;;;;;4987203;28;20032;-83
2023/03/13 13:19:25;;;;;;;31.42;5.55;;;;;;;;;;4987487;28;20038;-84
2023/03/13 13:22:10;;;;;;;29.02;5.70;;;;;;;;;;4992210;28;20511;-82
2023/03/13 13:24:59;;;;;;;26.98;4.25;;;;;;;;;;4991075;28;20038;-81
2023/03/13 13:27:28;;;;;;;23.85;4.68;;;;;;;;;;4981806;28;20119;-82
2023/03/13 13:29:55;;;;;;;23.73;5.50;;;;;;;;;;4991215;28;20375;-82
2023/03/13 13:32:38;;;;;;;23.73;5.20;;;;;;;;;;4987738;28;20036;-81
2023/03/13 13:35:13;;;;;;;25.80;5.75;;;;;;;;;;4991514;28;20042;-82
2023/03/13 13:37:40;;;;;;;26.85;5.72;;;;;;;;;;4989731;28;20027;-81
2023/03/13 13:40:17;;;;;;;18.35;4.75;;;;;;;;;;4989761;28;20042;-83
2023/03/13 13:42:51;;;;;;;26.65;4.70;;;;;;;;;;4991733;28;20145;-81
2023/03/13 13:45:18;;;;;;;26.08;5.22;;;;;;;;;;4972020;28;20069;-81
2023/03/13 13:47:46;;;;;;;29.13;5.03;;;;;;;;;;4972704;28;20114;-82
2023/03/13 13:50:19;;;;;;;28.38;6.03;;;;;;;;;;4984389;28;20336;-82
2023/03/13 13:52:47;;;;;;;24.25;4.78;;;;;;;;;;4972205;28;20483;-82
2023/03/13 13:55:40;;;;;;;30.60;5.10;;;;;;;;;;4984996;28;20038;-81
2023/03/13 13:58:27;;;;;;;26.02;6.40;;;;;;;;;;4991888;28;20026;-83
2023/03/13 14:00:56;;;;;;;29.42;6.07;;;;;;;;;;4989260;28;20039;-82
2023/03/13 14:03:26;;;;;;;32.80;5.68;;;;;;;;;;4989603;28;20061;-83
2023/03/13 14:05:58;;;;;;;26.90;4.30;;;;;;;;;;4992410;28;20026;-83
2023/03/13 14:08:28;;;;;;;25.80;5.50;;;;;;;;;;4989867;28;20487;-85
2023/03/13 14:11:06;;;;;;;28.77;5.10;;;;;;;;;;4989677;28;20041;-86
2023/03/13 14:13:32;;;;;;;31.95;6.47;;;;;;;;;;4991493;28;20065;-83
2023/03/13 14:16:12;;;;;;;28.98;6.55;;;;;;;;;;4988946;28;20329;-84
2023/03/13 14:18:42;;;;;;;26.15;5.35;;;;;;;;;;4977465;28;20391;-82
2023/03/13 14:21:12;;;;;;;32.05;5.22;;;;;;;;;;4981024;28;20034;-83
2023/03/13 14:23:45;;;;;;;37.22;6.95;;;;;;;;;;4975465;28;20081;-77
2023/03/13 14:26:19;;;;;;;26.30;5.95;;;;;;;;;;4983605;28;20574;-78
2023/03/13 14:28:59;;;;;;;34.33;6.22;;;;;;;;;;4979630;28;20043;-78
2023/03/13 14:31:25;;;;;;;24.65;5.00;;;;;;;;;;4975498;28;20034;-78
2023/03/13 14:33:51;;;;;;;56.83;20.80;;;;;;;;;;4979657;28;20045;-83
2023/03/13 14:36:17;;;;;;;32.30;8.02;;;;;;;;;;4981026;28;20034;-80
2023/03/13 14:38:53;;;;;;;35.40;5.75;;;;;;;;;;4986387;28;20038;-77
2023/03/13 14:41:23;;;;;;;33.83;5.93;;;;;;;;;;4987194;28;20387;-80